Time;durP1;ratioP1;P1;durP2;ratioP2;P2;SDS_P1;SDS_P2;PMS_P1;PMS_P2;Temp;Humidity;BMP_temperature;BMP_pressure;BME280_temperature;BME280_humidity;BME280_pressure;Samples;Min_cycle;Max_cycle;Signal;HPM_P1;HPM_P2
2022/06/15 00:01:22;;;;;;;4.45;1.67;;;;;;;15.28;58.18;99630.22;1759289;81;21004;-67
2022/06/15 00:03:50;;;;;;;3.72;1.60;;;;;;;15.32;57.83;99629.73;1755079;81;21077;-68
2022/06/15 00:06:26;;;;;;;4.83;2.02;;;;;;;15.34;57.71;99632.98;1754907;81;20981;-68
2022/06/15 00:08:57;;;;;;;4.87;2.10;;;;;;;15.29;57.84;99631.26;1746806;81;21590;-67
2022/06/15 00:11:35;;;;;;;4.45;1.90;;;;;;;15.25;58.33;99629.54;1755274;81;21598;-67
2022/06/15 00:14:09;;;;;;;4.17;2.20;;;;;;;15.22;59.11;99628.25;1756073;81;21086;-68
2022/06/15 00:16:35;;;;;;;6.60;1.92;;;;;;;15.22;59.05;99629.64;1705144;81;21037;-66
2022/06/15 00:19:04;;;;;;;6.87;1.90;;;;;;;15.23;59.16;99624.34;1751423;81;21021;-67
2022/06/15 00:21:31;;;;;;;3.05;1.57;;;;;;;15.21;58.73;99626.65;1758072;81;21206;-66
2022/06/15 00:23:57;;;;;;;9.05;1.90;;;;;;;15.22;58.62;99633.80;1755122;81;21019;-67
2022/06/15 00:26:26;;;;;;;4.03;1.80;;;;;;;15.23;58.74;99632.66;1759999;81;21060;-66
2022/06/15 00:28:52;;;;;;;5.40;2.08;;;;;;;15.26;58.52;99630.58;1745803;81;21036;-67
2022/06/15 00:31:20;;;;;;;3.83;1.80;;;;;;;15.27;58.13;99628.62;1755701;81;21102;-65
2022/06/15 00:33:47;;;;;;;3.45;2.02;;;;;;;15.27;58.34;99630.80;1757306;81;21161;-67
2022/06/15 00:36:18;;;;;;;5.45;2.40;;;;;;;15.27;58.78;99629.41;1758939;81;21060;-67
2022/06/15 00:38:49;;;;;;;6.92;2.20;;;;;;;15.30;58.65;99627.91;1755072;81;20988;-67
2022/06/15 00:41:19;;;;;;;7.65;2.27;;;;;;;15.31;58.12;99622.58;1750751;81;21036;-65
2022/06/15 00:43:51;;;;;;;6.78;2.50;;;;;;;15.27;58.31;99625.24;1758865;81;21031;-65
2022/06/15 00:46:34;;;;;;;6.87;2.95;;;;;;;15.20;58.56;99626.40;1747076;81;21287;-66
2022/06/15 00:49:09;;;;;;;8.90;2.58;;;;;;;15.18;58.81;99622.59;1749120;81;28165;-67
2022/06/15 00:51:35;;;;;;;5.12;2.80;;;;;;;15.13;59.14;99624.81;1711378;81;21075;-67
2022/06/15 00:54:04;;;;;;;6.90;2.55;;;;;;;15.11;59.13;99619.61;1755698;81;21071;-66
2022/06/15 00:56:30;;;;;;;8.18;2.67;;;;;;;15.13;59.21;99621.44;1759481;81;21027;-66
2022/06/15 00:59:07;;;;;;;6.28;2.45;;;;;;;15.15;58.90;99619.13;1758581;81;21570;-66
2022/06/15 01:01:36;;;;;;;6.33;2.65;;;;;;;15.10;58.94;99619.36;1753510;81;21028;-65
2022/06/15 01:04:02;;;;;;;5.37;2.20;;;;;;;15.06;59.24;99621.23;1727113;81;21000;-67
2022/06/15 01:06:53;;;;;;;4.55;2.25;;;;;;;15.04;58.87;99621.59;1759915;81;21095;-68
2022/06/15 01:09:29;;;;;;;5.37;1.90;;;;;;;15.02;58.97;99621.69;1748396;81;21329;-68
2022/06/15 01:12:13;;;;;;;6.67;2.60;;;;;;;14.93;59.48;99621.23;1751139;81;21106;-67
2022/06/15 01:15:14;;;;;;;4.35;2.47;;;;;;;14.95;59.48;99627.81;1754201;81;21219;-67
2022/06/15 01:18:00;;;;;;;4.40;2.10;;;;;;;14.95;59.23;99623.66;1758628;81;21087;-67
2022/06/15 01:20:51;;;;;;;4.00;1.85;;;;;;;14.92;59.53;99628.52;1746677;81;20985;-67
2022/06/15 01:24:09;;;;;;;2.40;1.50;;;;;;;14.90;59.53;99623.89;1743786;81;21057;-69
2022/06/15 01:27:12;;;;;;;5.12;2.50;;;;;;;14.88;59.36;99633.95;1753838;81;21175;-68
2022/06/15 01:30:08;;;;;;;5.45;2.00;;;;;;;14.83;59.49;99636.38;1751237;81;21084;-68
2022/06/15 01:32:54;;;;;;;5.47;2.42;;;;;;;14.78;59.67;99637.97;1754349;81;21078;-66
2022/06/15 01:36:06;;;;;;;5.17;2.55;;;;;;;14.74;59.80;99635.64;1744359;81;21048;-65
2022/06/15 01:39:05;;;;;;;7.10;2.17;;;;;;;14.72;59.99;99634.59;1759425;81;21064;-65
2022/06/15 01:41:35;;;;;;;4.85;2.20;;;;;;;14.69;59.95;99635.30;1756127;81;21184;-66
2022/06/15 01:44:15;;;;;;;3.25;1.50;;;;;;;14.66;60.22;99635.17;1755101;81;20992;-69
2022/06/15 01:46:45;;;;;;;4.20;1.85;;;;;;;14.64;60.45;99641.06;1754987;81;21051;-64
2022/06/15 01:49:26;;;;;;;4.95;2.12;;;;;;;14.59;60.79;99640.72;1755888;81;21008;-67
2022/06/15 01:51:52;;;;;;;7.17;1.75;;;;;;;14.58;60.65;99640.50;1755210;81;20992;-66
2022/06/15 01:54:23;;;;;;;4.00;1.98;;;;;;;14.56;60.55;99641.98;1760021;81;21764;-66
2022/06/15 01:56:50;;;;;;;5.95;2.05;;;;;;;14.48;60.86;99641.73;1749636;81;21027;-68
2022/06/15 01:59:39;;;;;;;4.55;1.82;;;;;;;14.46;60.98;99641.29;1749698;81;20968;-67
2022/06/15 02:02:30;;;;;;;2.95;1.47;;;;;;;14.47;61.40;99647.62;1739119;81;21508;-68
2022/06/15 02:05:32;;;;;;;5.97;1.95;;;;;;;14.52;61.06;99654.93;1751838;81;21057;-67
2022/06/15 02:08:18;;;;;;;3.65;1.92;;;;;;;14.50;61.14;99642.77;1751807;81;21085;-67
2022/06/15 02:11:10;;;;;;;6.28;1.95;;;;;;;14.52;61.15;99657.10;1750674;81;21024;-66
2022/06/15 02:13:58;;;;;;;3.45;1.80;;;;;;;14.55;61.54;99658.39;1756601;81;21551;-67
2022/06/15 02:16:48;;;;;;;8.20;2.80;;;;;;;14.59;61.00;99660.70;1749893;81;21000;-67
2022/06/15 02:19:17;;;;;;;4.53;1.92;;;;;;;14.58;61.41;99665.45;1758806;81;21044;-66
2022/06/15 02:21:46;;;;;;;2.90;1.42;;;;;;;14.58;61.32;99659.91;1756643;80;21348;-68
2022/06/15 02:24:14;;;;;;;8.03;2.22;;;;;;;14.57;61.21;99665.77;1761566;81;21775;-66
2022/06/15 02:26:43;;;;;;;4.67;2.50;;;;;;;14.58;61.30;99669.61;1758778;81;21570;-67
2022/06/15 02:29:18;;;;;;;3.58;1.87;;;;;;;14.59;61.02;99674.56;1761278;81;20996;-66
2022/06/15 02:31:47;;;;;;;2.02;1.60;;;;;;;14.54;61.28;99674.78;1747965;81;21583;-66
2022/06/15 02:34:14;;;;;;;8.05;1.80;;;;;;;14.51;61.67;99677.67;1747081;81;21536;-66
2022/06/15 02:36:43;;;;;;;3.77;1.75;;;;;;;14.52;61.97;99676.52;1758074;81;20996;-65
2022/06/15 02:39:11;;;;;;;8.40;2.30;;;;;;;14.55;61.55;99676.41;1755250;81;21070;-68
2022/06/15 02:41:38;;;;;;;9.08;2.20;;;;;;;14.57;61.98;99679.06;1707906;83;21012;-67
2022/06/15 02:44:12;;;;;;;7.08;2.22;;;;;;;14.63;62.19;99676.07;1688093;83;21059;-66
2022/06/15 02:46:45;;;;;;;6.47;1.75;;;;;;;14.69;61.83;99676.07;1709943;83;21123;-64
2022/06/15 02:49:13;;;;;;;4.00;1.55;;;;;;;14.72;61.42;99672.63;1714900;82;21035;-68
2022/06/15 02:51:51;;;;;;;3.22;1.87;;;;;;;14.73;61.14;99677.02;1710069;83;21063;-66
2022/06/15 02:54:30;;;;;;;5.22;1.98;;;;;;;14.73;61.40;99688.11;1691909;84;21024;-67
2022/06/15 02:56:59;;;;;;;10.18;2.35;;;;;;;14.75;62.03;99684.42;1752209;81;20995;-68
2022/06/15 02:59:27;;;;;;;5.05;1.95;;;;;;;14.81;62.08;99684.45;1756645;81;21610;-66
2022/06/15 03:01:57;;;;;;;5.70;1.77;;;;;;;14.86;62.08;99685.39;1757924;81;21011;-65
2022/06/15 03:04:24;;;;;;;4.75;2.35;;;;;;;14.87;61.94;99685.05;1755629;81;20996;-67
2022/06/15 03:06:52;;;;;;;5.12;1.95;;;;;;;14.89;61.98;99688.28;1757951;81;21619;-65
2022/06/15 03:09:19;;;;;;;4.10;2.00;;;;;;;14.91;61.93;99687.94;1747664;81;21067;-66
2022/06/15 03:11:48;;;;;;;7.67;1.70;;;;;;;14.94;61.93;99683.08;1751284;81;21134;-65
2022/06/15 03:14:22;;;;;;;5.85;1.75;;;;;;;14.98;61.97;99688.75;1750459;81;21032;-67
2022/06/15 03:16:49;;;;;;;3.40;1.75;;;;;;;15.01;61.78;99681.12;1728272;81;21568;-66
2022/06/15 03:19:18;;;;;;;5.40;2.05;;;;;;;15.00;61.91;99681.69;1707605;83;21569;-66
2022/06/15 03:21:49;;;;;;;4.85;2.02;;;;;;;15.01;61.90;99690.23;1669684;84;21597;-68
2022/06/15 03:24:17;;;;;;;4.45;1.70;;;;;;;14.92;61.10;99688.16;1713263;82;22048;-65
2022/06/15 03:26:45;;;;;;;3.30;1.30;;;;;;;14.82;61.50;99685.27;1682546;84;21076;-68
2022/06/15 03:29:12;;;;;;;4.87;1.35;;;;;;;14.77;62.13;99687.66;1720165;82;21088;-69
2022/06/15 03:31:41;;;;;;;7.35;1.70;;;;;;;14.82;62.41;99689.42;1711227;82;21131;-67
2022/06/15 03:34:09;;;;;;;5.20;1.57;;;;;;;14.77;61.86;99689.62;1721960;82;21045;-66
2022/06/15 03:36:39;;;;;;;4.10;1.42;;;;;;;14.65;62.78;99687.06;1722701;82;21595;-65
2022/06/15 03:39:07;;;;;;;3.50;1.57;;;;;;;14.65;62.91;99690.41;1724575;82;21049;-66
2022/06/15 03:41:39;;;;;;;5.17;1.62;;;;;;;14.61;63.07;99697.22;1758222;81;21453;-67
2022/06/15 03:44:10;;;;;;;1.87;1.25;;;;;;;14.54;62.86;99706.09;1759997;81;21122;-70
2022/06/15 03:46:39;;;;;;;2.75;1.72;;;;;;;14.46;62.54;99704.22;1756799;81;21586;-67
2022/06/15 03:49:12;;;;;;;5.85;1.52;;;;;;;14.41;62.91;99704.44;1756602;81;21527;-69
2022/06/15 03:51:41;;;;;;;6.87;4.00;;;;;;;14.32;63.12;99712.27;1733170;81;21548;-69
2022/06/15 03:54:07;;;;;;;3.77;1.70;;;;;;;14.31;63.77;99707.07;1759626;81;21501;-69
2022/06/15 03:56:46;;;;;;;6.20;1.57;;;;;;;14.35;64.28;99710.20;1749570;81;21049;-70
2022/06/15 03:59:17;;;;;;;6.70;1.57;;;;;;;14.45;63.95;99715.09;1755886;81;21051;-70
2022/06/15 04:01:46;;;;;;;3.00;1.52;;;;;;;14.49;63.45;99717.40;1752634;81;21546;-69
2022/06/15 04:04:13;;;;;;;6.83;1.85;;;;;;;14.51;63.57;99719.26;1751015;80;21465;-69
2022/06/15 04:06:41;;;;;;;5.95;1.95;;;;;;;14.49;63.58;99718.78;1749841;81;21670;-67
2022/06/15 04:09:08;;;;;;;6.08;1.62;;;;;;;14.48;63.57;99722.72;1754008;81;21599;-68
2022/06/15 04:14:29;;;;;;;9.20;2.17;;;;;;;14.52;64.11;99729.19;1740221;81;21648;-70
2022/06/15 04:16:57;;;;;;;6.58;1.60;;;;;;;14.61;64.01;99729.09;1745323;81;21065;-65
2022/06/15 04:19:29;;;;;;;3.35;1.50;;;;;;;14.62;64.40;99727.14;1736915;81;21076;-67
2022/06/15 04:21:57;;;;;;;3.72;1.92;;;;;;;14.69;64.70;99724.03;1752744;80;21055;-65
2022/06/15 04:24:28;;;;;;;4.03;1.45;;;;;;;14.80;64.48;99726.37;1735498;81;21017;-66
2022/06/15 04:26:57;;;;;;;4.70;1.85;;;;;;;14.83;64.06;99726.52;1759714;81;22306;-69
2022/06/15 04:29:25;;;;;;;3.72;1.65;;;;;;;14.86;64.06;99721.45;1750730;81;21531;-66
2022/06/15 04:31:53;;;;;;;5.12;1.60;;;;;;;14.87;63.98;99721.67;1751000;81;21503;-66
2022/06/15 04:34:19;;;;;;;3.87;1.47;;;;;;;14.90;64.03;99725.14;1753607;81;21068;-65
2022/06/15 04:36:47;;;;;;;3.67;1.60;;;;;;;14.95;63.69;99727.69;1754198;81;20976;-65
2022/06/15 04:39:18;;;;;;;3.25;1.50;;;;;;;15.02;63.43;99728.50;1754278;81;21631;-66
2022/06/15 04:41:45;;;;;;;4.03;1.80;;;;;;;15.04;63.55;99728.41;1688530;84;21543;-66
2022/06/15 04:44:13;;;;;;;23.47;2.72;;;;;;;15.09;63.58;99727.36;1744793;81;21021;-65
2022/06/15 04:46:42;;;;;;;2.75;1.40;;;;;;;15.11;63.32;99729.22;1745719;81;21028;-65
2022/06/15 04:49:10;;;;;;;6.78;1.85;;;;;;;15.08;63.12;99731.30;1702169;82;21615;-65
2022/06/15 04:51:41;;;;;;;3.22;1.27;;;;;;;15.06;62.86;99737.17;1710711;82;21261;-65
2022/06/15 04:54:09;;;;;;;7.45;1.50;;;;;;;15.05;63.10;99741.68;1711145;82;21028;-68
2022/06/15 04:56:38;;;;;;;5.75;1.67;;;;;;;15.11;63.28;99739.50;1700030;82;21111;-66
2022/06/15 04:59:07;;;;;;;3.75;1.52;;;;;;;15.16;63.81;99747.03;1681030;82;21043;-65
2022/06/15 05:01:35;;;;;;;4.67;1.60;;;;;;;15.15;63.97;99742.62;1714360;83;20999;-64
2022/06/15 05:04:04;;;;;;;6.87;2.08;;;;;;;15.19;63.85;99741.35;1720629;83;21235;-65
2022/06/15 05:06:37;;;;;;;5.12;1.77;;;;;;;15.24;63.66;99742.52;1704573;82;21058;-65
2022/06/15 05:09:09;;;;;;;6.35;1.75;;;;;;;15.26;63.41;99741.59;1682869;84;21087;-67
2022/06/15 05:11:37;;;;;;;5.47;1.82;;;;;;;15.37;63.46;99741.13;1737793;81;21516;-67
2022/06/15 05:14:03;;;;;;;5.08;1.67;;;;;;;15.45;63.79;99737.42;1741281;81;21044;-67
2022/06/15 05:16:32;;;;;;;5.97;1.85;;;;;;;15.57;64.05;99739.38;1738198;81;21681;-69
2022/06/15 05:19:01;;;;;;;3.00;1.40;;;;;;;15.69;63.14;99742.72;1746462;81;21080;-66
2022/06/15 05:21:28;;;;;;;7.05;1.50;;;;;;;15.73;62.74;99745.02;1747803;81;21000;-67
2022/06/15 05:23:55;;;;;;;4.85;1.47;;;;;;;15.77;62.66;99744.55;1746359;81;21051;-67
2022/06/15 05:26:26;;;;;;;3.62;1.30;;;;;;;15.84;62.73;99741.75;1731822;81;21622;-67
2022/06/15 05:28:53;;;;;;;5.25;1.50;;;;;;;15.95;62.77;99741.48;1723946;81;21607;-65
2022/06/15 05:31:21;;;;;;;2.87;1.30;;;;;;;16.10;62.78;99741.95;1733352;81;21044;-66
2022/06/15 05:33:53;;;;;;;4.37;1.50;;;;;;;16.24;62.22;99744.34;1727767;81;21043;-68
2022/06/15 05:36:27;;;;;;;7.08;1.30;;;;;;;16.34;61.61;99745.80;1732731;81;21056;-67
2022/06/15 05:38:54;;;;;;;;;;;;;;;16.39;61.35;99746.95;1729324;81;21071;-67
2022/06/15 05:41:23;;;;;;;2.65;1.27;;;;;;;16.42;60.36;99743.45;1731413;81;21237;-67
2022/06/15 05:43:53;;;;;;;4.87;1.50;;;;;;;16.45;60.24;99738.56;1730297;81;21035;-69
2022/06/15 05:46:29;;;;;;;3.65;1.80;;;;;;;16.49;59.80;99743.66;1727755;81;21044;-69
2022/06/15 05:48:56;;;;;;;4.45;1.25;;;;;;;16.54;60.44;99736.45;1732815;81;21078;-66
2022/06/15 05:51:25;;;;;;;4.28;1.25;;;;;;;16.67;60.43;99741.92;1731892;81;21118;-67
2022/06/15 05:53:56;;;;;;;3.90;1.35;;;;;;;16.77;60.04;99738.62;1737555;81;21147;-67
2022/06/15 05:56:24;;;;;;;8.15;1.70;;;;;;;16.88;59.24;99735.31;1749597;81;22274;-67
2022/06/15 05:58:52;;;;;;;8.60;1.55;;;;;;;16.93;59.13;99744.79;1750080;81;21639;-69
2022/06/15 06:01:28;;;;;;;4.72;1.02;;;;;;;16.97;59.05;99749.87;1748975;81;21066;-68
2022/06/15 06:03:55;;;;;;;6.85;1.65;;;;;;;16.96;58.26;99744.06;1753119;81;21560;-67
2022/06/15 06:06:23;;;;;;;3.55;1.20;;;;;;;17.00;58.12;99752.52;1752954;81;21825;-68
2022/06/15 06:08:51;;;;;;;1.90;1.30;;;;;;;17.04;57.90;99747.86;1747820;81;21036;-67
2022/06/15 06:11:19;;;;;;;2.17;1.20;;;;;;;17.10;57.99;99744.23;1751741;81;21047;-66
2022/06/15 06:13:46;;;;;;;4.42;1.90;;;;;;;17.12;57.84;99744.11;1745310;81;21509;-67
2022/06/15 06:16:14;;;;;;;3.45;1.50;;;;;;;17.15;56.97;99750.92;1742012;81;22086;-67
2022/06/15 06:18:41;;;;;;;4.80;1.10;;;;;;;17.17;57.94;99746.39;1754181;81;21097;-66
2022/06/15 06:21:08;;;;;;;3.85;1.42;;;;;;;17.31;58.32;99738.98;1750053;81;21447;-66
2022/06/15 06:23:35;;;;;;;2.85;1.30;;;;;;;17.46;58.00;99750.69;1742842;81;21517;-66
2022/06/15 06:26:02;;;;;;;4.20;1.35;;;;;;;17.53;56.98;99747.26;1695768;82;21529;-68
2022/06/15 06:28:38;;;;;;;3.02;1.20;;;;;;;17.57;57.22;99758.48;1748911;81;21117;-68
2022/06/15 06:31:06;;;;;;;6.70;1.25;;;;;;;17.67;56.68;99752.94;1749984;81;21142;-66
2022/06/15 06:33:35;;;;;;;5.47;1.75;;;;;;;17.70;55.75;99757.77;1741502;81;21524;-67
2022/06/15 06:36:13;;;;;;;3.75;1.42;;;;;;;17.71;55.68;99759.38;1737340;81;21521;-67
2022/06/15 06:38:40;;;;;;;5.12;1.32;;;;;;;17.76;56.31;99754.34;1737415;81;21517;-66
2022/06/15 06:41:09;;;;;;;5.25;1.05;;;;;;;17.80;54.82;99755.00;1745867;81;21484;-65
2022/06/15 06:43:36;;;;;;;9.93;1.52;;;;;;;17.81;56.00;99755.24;1752895;81;21839;-68
2022/06/15 06:46:02;;;;;;;11.12;2.85;;;;;;;17.86;55.25;99759.93;1754280;81;20997;-68
2022/06/15 06:48:29;;;;;;;6.35;1.42;;;;;;;17.92;55.55;99756.28;1758193;81;21043;-67
2022/06/15 06:50:56;;;;;;;6.42;1.17;;;;;;;18.01;55.07;99758.86;1753176;81;21047;-67
2022/06/15 06:53:24;;;;;;;3.65;1.20;;;;;;;18.09;54.26;99759.81;1752408;81;21052;-66
2022/06/15 06:55:52;;;;;;;5.58;1.40;;;;;;;18.13;54.17;99764.31;1751753;81;21137;-67
2022/06/15 06:58:18;;;;;;;3.20;1.20;;;;;;;18.19;54.10;99760.66;1748840;81;21048;-65
2022/06/15 07:00:50;;;;;;;2.75;1.22;;;;;;;18.28;54.09;99753.47;1756871;81;21114;-65
2022/06/15 07:03:16;;;;;;;4.45;1.37;;;;;;;18.37;53.56;99758.83;1751310;81;21016;-68
2022/06/15 07:05:44;;;;;;;3.95;1.00;;;;;;;18.46;54.06;99760.79;1740312;81;21056;-65
2022/06/15 07:08:12;;;;;;;3.35;1.10;;;;;;;18.54;53.07;99760.94;1744133;81;21106;-67
2022/06/15 07:10:40;;;;;;;13.10;1.90;;;;;;;18.49;51.98;99765.63;1759643;81;21960;-69
2022/06/15 07:13:11;;;;;;;9.20;1.60;;;;;;;18.44;52.56;99758.16;1745981;81;21735;-66
2022/06/15 07:15:39;;;;;;;4.22;1.42;;;;;;;18.44;52.37;99760.34;1740029;81;21126;-68
2022/06/15 07:18:06;;;;;;;3.80;1.17;;;;;;;18.49;52.87;99760.05;1742240;81;21734;-67
2022/06/15 07:20:34;;;;;;;6.42;1.20;;;;;;;18.61;52.59;99760.48;1736679;81;21581;-67
2022/06/15 07:23:01;;;;;;;9.13;1.70;;;;;;;18.73;52.57;99762.90;1739291;81;21100;-67
2022/06/15 07:25:28;;;;;;;3.47;1.30;;;;;;;18.81;52.85;99756.27;1742116;81;21032;-66
2022/06/15 07:27:57;;;;;;;4.15;1.20;;;;;;;18.81;52.10;99761.03;1740174;81;21055;-68
2022/06/15 07:30:27;;;;;;;6.58;1.42;;;;;;;18.88;52.71;99761.75;1738633;81;21075;-65
2022/06/15 07:32:58;;;;;;;6.40;1.27;;;;;;;18.93;51.46;99762.27;1734327;81;21166;-68
2022/06/15 07:35:30;;;;;;;2.98;1.12;;;;;;;18.88;50.16;99765.94;1754654;81;21536;-66
2022/06/15 07:37:57;;;;;;;3.52;1.50;;;;;;;18.90;50.77;99764.37;1747121;81;21091;-67
2022/06/15 07:40:24;;;;;;;5.12;1.22;;;;;;;19.07;51.31;99760.28;1749048;81;21146;-67
2022/06/15 07:42:52;;;;;;;6.28;1.65;;;;;;;19.27;50.80;99754.67;1753143;81;21031;-66
2022/06/15 07:45:19;;;;;;;5.05;1.17;;;;;;;19.43;49.96;99755.13;1760002;81;21505;-66
2022/06/15 07:50:34;;;;;;;3.42;1.10;;;;;;;19.67;50.80;99752.47;1748102;81;21052;-66
2022/06/15 07:53:01;;;;;;;8.30;1.42;;;;;;;19.83;49.89;99753.71;1734424;81;21044;-67
2022/06/15 07:55:33;;;;;;;3.85;0.95;;;;;;;19.91;49.46;99753.20;1758642;81;21478;-68
2022/06/15 07:58:00;;;;;;;8.43;0.85;;;;;;;20.00;48.95;99748.73;1756696;81;21104;-68
2022/06/15 08:00:28;;;;;;;7.65;1.60;;;;;;;20.06;48.08;99746.45;1757873;81;21067;-66
2022/06/15 08:02:55;;;;;;;3.30;0.93;;;;;;;20.04;46.51;99748.23;1758571;81;21051;-69
2022/06/15 08:05:21;;;;;;;4.33;1.50;;;;;;;19.94;46.43;99751.66;1742513;81;21137;-68
2022/06/15 08:07:49;;;;;;;6.62;1.15;;;;;;;19.79;47.01;99740.88;1732608;81;21079;-66
2022/06/15 08:10:18;;;;;;;4.80;1.05;;;;;;;19.75;47.86;99747.00;1735242;81;21125;-66
2022/06/15 08:12:50;;;;;;;4.25;1.07;;;;;;;19.85;47.75;99744.94;1753179;81;21118;-66
2022/06/15 08:15:18;;;;;;;3.25;1.02;;;;;;;19.97;47.32;99748.68;1753959;81;20992;-68
2022/06/15 08:17:53;;;;;;;5.53;1.35;;;;;;;20.05;47.25;99737.83;1755769;81;21449;-68
2022/06/15 08:20:35;;;;;;;4.22;0.72;;;;;;;20.16;47.49;99749.95;1742608;81;21548;-68
2022/06/15 08:23:07;;;;;;;5.63;1.10;;;;;;;20.29;46.14;99733.73;1741105;81;22137;-70
2022/06/15 08:25:40;;;;;;;2.58;0.88;;;;;;;20.29;46.14;99733.73;1735965;81;21458;-69
2022/06/15 08:28:08;;;;;;;5.42;0.82;;;;;;;20.41;46.03;99745.27;1748639;81;20985;-67
2022/06/15 08:30:39;;;;;;;4.10;1.22;;;;;;;20.56;45.84;99741.21;1738738;81;21009;-68
2022/06/15 08:33:09;;;;;;;2.87;1.15;;;;;;;20.65;46.46;99737.52;1744102;81;21194;-66
2022/06/15 08:35:39;;;;;;;2.35;0.85;;;;;;;20.73;47.00;99741.19;1743386;81;21121;-66
2022/06/15 08:38:08;;;;;;;2.87;1.42;;;;;;;20.72;45.36;99752.77;1749945;81;21283;-69
2022/06/15 08:40:59;;;;;;;3.60;1.00;;;;;;;20.60;44.69;99752.45;1750755;81;21051;-68
2022/06/15 08:43:59;;;;;;;5.03;1.55;;;;;;;20.56;44.98;99753.80;1748767;81;21043;-67
2022/06/15 08:46:49;;;;;;;1.22;0.90;;;;;;;20.63;45.39;99742.69;1754108;81;21094;-65
2022/06/15 08:49:59;;;;;;;7.33;1.07;;;;;;;20.73;45.75;99744.57;1741922;81;21140;-69
2022/06/15 08:52:44;;;;;;;3.50;1.20;;;;;;;20.71;44.94;99745.58;1748177;81;21674;-65
2022/06/15 08:55:53;;;;;;;2.22;1.02;;;;;;;20.60;44.94;99742.66;1754583;81;21079;-66
2022/06/15 08:58:58;;;;;;;1.45;0.80;;;;;;;20.61;46.55;99747.86;1749007;81;20972;-67
2022/06/15 09:01:52;;;;;;;3.27;0.90;;;;;;;20.76;45.31;99741.81;1748048;81;21076;-69
2022/06/15 09:04:40;;;;;;;1.55;0.70;;;;;;;20.95;45.24;99734.42;1748351;81;21491;-66
2022/06/15 09:07:39;;;;;;;15.03;2.00;;;;;;;20.96;43.69;99739.43;1757104;81;21016;-66
2022/06/15 09:10:27;;;;;;;3.12;1.20;;;;;;;20.70;43.46;99740.56;1759840;81;20981;-69
2022/06/15 09:13:11;;;;;;;3.47;1.10;;;;;;;20.71;45.37;99737.18;1750640;81;21087;-67
2022/06/15 09:16:04;;;;;;;1.65;0.80;;;;;;;20.91;43.96;99731.55;1749775;81;21091;-67
2022/06/15 09:18:54;;;;;;;1.72;1.00;;;;;;;21.08;43.62;99736.34;1749421;81;21164;-65
2022/06/15 09:21:28;;;;;;;3.17;1.45;;;;;;;21.15;43.28;99744.00;1686797;81;21536;-66
2022/06/15 09:24:03;;;;;;;3.58;0.78;;;;;;;21.15;43.29;99746.19;1758722;81;21001;-67
2022/06/15 09:26:46;;;;;;;0.80;0.50;;;;;;;21.14;43.04;99739.58;1759491;81;21083;-67
2022/06/15 09:29:17;;;;;;;1.80;0.90;;;;;;;21.23;43.83;99737.27;1713478;81;21050;-67
2022/06/15 09:31:59;;;;;;;2.08;0.70;;;;;;;21.34;43.72;99730.32;1756678;81;21868;-67
2022/06/15 09:34:33;;;;;;;2.02;1.02;;;;;;;21.42;43.13;99732.59;1757207;81;21012;-66
2022/06/15 09:37:00;;;;;;;6.12;1.47;;;;;;;21.50;43.85;99730.05;1746285;81;21515;-67
2022/06/15 09:39:28;;;;;;;2.27;0.70;;;;;;;21.57;44.15;99727.07;1756540;81;21047;-66
2022/06/15 09:42:24;;;;;;;2.55;0.55;;;;;;;21.67;42.52;99732.53;1712936;82;20992;-66
2022/06/15 09:44:59;;;;;;;14.50;1.00;;;;;;;21.65;43.15;99739.34;1705362;83;21904;-66
2022/06/15 09:47:49;;;;;;;1.55;0.80;;;;;;;21.55;41.92;99740.66;1753378;81;20993;-69
2022/06/15 09:50:52;;;;;;;2.60;0.78;;;;;;;21.38;41.55;99735.37;1739725;81;21572;-68
2022/06/15 09:54:00;;;;;;;2.10;0.80;;;;;;;21.23;42.38;99735.86;1742922;81;21072;-69
2022/06/15 09:56:29;;;;;;;5.42;1.00;;;;;;;21.24;42.25;99726.87;1754654;81;21023;-67
2022/06/15 09:59:03;;;;;;;7.30;1.12;;;;;;;21.46;43.20;99728.42;1758184;81;21110;-66
2022/06/15 10:01:38;;;;;;;1.12;0.70;;;;;;;21.65;42.55;99730.94;1753100;81;21035;-66
2022/06/15 10:04:07;;;;;;;1.72;0.62;;;;;;;21.77;42.11;99724.78;1751447;81;21529;-67
2022/06/15 10:07:06;;;;;;;4.47;0.80;;;;;;;21.70;40.72;99723.36;1742556;81;21063;-66
2022/06/15 10:09:38;;;;;;;1.82;0.88;;;;;;;21.33;40.95;99726.52;1754417;81;21027;-66
2022/06/15 10:15:22;;;;;;;2.58;0.80;;;;;;;21.05;44.03;99723.12;1752431;81;21095;-68
2022/06/15 10:17:56;;;;;;;1.30;0.80;;;;;;;21.16;43.56;99722.61;1754520;81;21074;-69
2022/06/15 10:20:35;;;;;;;2.47;0.62;;;;;;;21.24;42.54;99733.87;1748352;81;21082;-68
2022/06/15 10:23:05;;;;;;;1.70;0.72;;;;;;;21.16;40.52;99726.81;1745459;81;21015;-66
2022/06/15 10:25:38;;;;;;;2.90;0.88;;;;;;;21.09;39.97;99725.34;1754879;81;21072;-68
2022/06/15 10:28:33;;;;;;;2.42;0.70;;;;;;;21.16;42.39;99726.00;1756279;81;21004;-67
2022/06/15 10:31:04;;;;;;;1.25;0.57;;;;;;;21.36;40.90;99718.75;1736379;81;21090;-68
2022/06/15 10:33:46;;;;;;;1.87;0.50;;;;;;;21.64;41.92;99708.91;1758330;81;21059;-67
2022/06/15 10:36:31;;;;;;;3.80;0.75;;;;;;;21.91;42.26;99717.08;1758331;81;21029;-67
2022/06/15 10:39:05;;;;;;;1.10;0.57;;;;;;;22.17;41.49;99724.20;1752070;81;21164;-66
2022/06/15 10:41:51;;;;;;;2.15;0.82;;;;;;;22.21;38.78;99720.20;1725569;81;21540;-68
2022/06/15 10:44:33;;;;;;;0.98;0.68;;;;;;;21.96;37.96;99718.69;1752884;81;21043;-67
2022/06/15 10:47:08;;;;;;;2.30;0.70;;;;;;;21.74;39.29;99712.95;1756768;81;21038;-67
2022/06/15 10:49:43;;;;;;;2.90;0.98;;;;;;;21.80;42.21;99715.64;1717637;82;21094;-68
2022/06/15 10:52:24;;;;;;;2.80;0.60;;;;;;;21.96;39.86;99709.69;1723938;82;21058;-67
2022/06/15 11:03:42;;;;;;;1.72;0.60;;;;;;;21.94;38.26;99704.28;1743163;81;21087;-64
2022/06/15 11:06:09;;;;;;;7.30;1.05;;;;;;;21.85;38.60;99705.42;1750198;81;21650;-69
2022/06/15 11:08:42;;;;;;;1.30;0.55;;;;;;;21.73;38.73;99700.93;1742235;81;21067;-65
2022/06/15 11:11:26;;;;;;;6.83;0.68;;;;;;;21.65;39.06;99697.30;1743959;81;21078;-68
2022/06/15 11:13:57;;;;;;;2.37;0.90;;;;;;;21.77;39.73;99698.15;1742942;81;21061;-67
2022/06/15 11:19:22;;;;;;;2.95;1.10;;;;;;;22.08;38.33;99695.91;1742092;81;21008;-68
2022/06/15 11:22:00;;;;;;;0.72;0.40;;;;;;;22.00;37.58;99697.91;1733339;81;21052;-69
2022/06/15 11:24:51;;;;;;;0.78;0.50;;;;;;;21.77;37.57;99695.34;1700073;82;21027;-65
2022/06/15 11:27:35;;;;;;;6.28;0.80;;;;;;;21.61;38.83;99699.88;1690794;83;21094;-68
2022/06/15 11:30:33;;;;;;;0.45;0.45;;;;;;;21.46;38.47;99700.40;1744397;81;21027;-67
2022/06/15 11:33:23;;;;;;;2.12;1.02;;;;;;;21.31;39.05;99698.11;1744072;81;21177;-65
2022/06/15 11:36:25;;;;;;;1.60;0.60;;;;;;;21.23;40.29;99694.43;1744435;81;21041;-66
2022/06/15 11:39:19;;;;;;;4.05;1.10;;;;;;;21.45;41.17;99690.36;1708588;82;21031;-67
2022/06/15 11:41:54;;;;;;;2.33;1.12;;;;;;;21.84;41.44;99691.21;1691189;82;21075;-71
2022/06/15 11:44:27;;;;;;;0.95;0.70;;;;;;;22.22;40.03;99681.14;1744657;81;21556;-66
2022/06/15 11:47:41;;;;;;;2.75;0.62;;;;;;;22.45;38.58;99683.40;1739735;81;21102;-67
2022/06/15 11:50:36;;;;;;;1.65;0.53;;;;;;;22.63;38.40;99686.84;1704036;82;21055;-65
2022/06/15 11:53:11;;;;;;;2.70;1.00;;;;;;;22.78;37.40;99687.06;1716491;82;21134;-66
2022/06/15 11:55:44;;;;;;;2.20;0.60;;;;;;;22.88;37.72;99684.67;1706359;82;21075;-66
2022/06/15 11:58:50;;;;;;;4.37;0.70;;;;;;;22.96;37.01;99689.87;1696215;84;21673;-67
2022/06/15 12:01:54;;;;;;;1.95;0.68;;;;;;;22.96;36.44;99679.26;1694061;84;21276;-68
2022/06/15 12:04:40;;;;;;;2.67;0.70;;;;;;;23.08;37.38;99681.64;1702228;83;21064;-67
2022/06/15 12:07:32;;;;;;;5.72;0.93;;;;;;;23.23;36.42;99676.80;1695440;83;21699;-66
2022/06/15 12:10:17;;;;;;;1.20;0.85;;;;;;;23.33;36.40;99670.17;1720570;82;21071;-66
2022/06/15 12:12:57;;;;;;;1.35;0.70;;;;;;;23.44;35.67;99676.59;1687825;82;21146;-68
2022/06/15 12:15:55;;;;;;;1.70;0.60;;;;;;;23.44;34.90;99681.44;1682586;83;21211;-65
2022/06/15 12:18:53;;;;;;;6.12;0.70;;;;;;;23.26;34.10;99680.83;1703151;82;21609;-68
2022/06/15 12:21:41;;;;;;;1.25;0.50;;;;;;;22.90;35.18;99687.86;1711910;82;21032;-65
2022/06/15 12:24:22;;;;;;;4.58;0.93;;;;;;;22.61;35.77;99688.65;1616576;85;21149;-69
2022/06/15 12:27:04;;;;;;;6.12;0.72;;;;;;;22.49;37.34;99683.59;1680234;84;21835;-67
2022/06/15 12:29:43;;;;;;;1.20;0.53;;;;;;;22.45;37.67;99682.78;1739768;81;21205;-68
2022/06/15 12:32:35;;;;;;;3.50;0.72;;;;;;;22.53;37.37;99673.78;1711748;83;21099;-67